createdAt,value
2023-03-17T00:01:16.317Z,13.21
2023-03-17T00:06:24.741Z,13.48
2023-03-17T00:11:28.852Z,13.73
2023-03-17T00:16:38.018Z,12.72
2023-03-17T00:21:42.070Z,13.59
2023-03-17T00:26:46.155Z,12.74
2023-03-17T00:31:51.454Z,13.02
2023-03-17T00:36:58.922Z,13.21
2023-03-17T00:42:02.368Z,13.75
2023-03-17T00:47:10.797Z,12.63
2023-03-17T00:52:14.238Z,13.58
2023-03-17T00:57:18.465Z,13.58
2023-03-17T01:02:24.207Z,14.03
2023-03-17T01:07:28.320Z,13.79
2023-03-17T01:12:33.009Z,14.01
2023-03-17T01:17:39.379Z,13.83
2023-03-17T01:22:42.910Z,13.39
2023-03-17T01:27:47.652Z,13.95
2023-03-17T01:32:52.743Z,13.80
2023-03-17T01:37:57.128Z,14.17
2023-03-17T01:43:04.843Z,14.24
2023-03-17T01:48:10.005Z,14.13
2023-03-17T01:53:14.172Z,14.13
2023-03-17T01:58:20.645Z,14.09
2023-03-17T02:03:26.040Z,13.37
2023-03-17T02:08:29.610Z,13.92
2023-03-17T02:13:34.948Z,13.95
2023-03-17T02:18:39.760Z,13.93
2023-03-17T02:23:44.860Z,14.12
2023-03-17T02:28:48.679Z,14.07
2023-03-17T02:33:52.170Z,14.03
2023-03-17T02:38:58.077Z,14.15
2023-03-17T02:44:01.555Z,13.94
2023-03-17T02:49:05.694Z,13.96
2023-03-17T02:54:10.774Z,13.78
2023-03-17T02:59:14.353Z,13.57
2023-03-17T03:04:19.062Z,14.04
2023-03-17T03:09:24.223Z,14.29
2023-03-17T03:14:27.646Z,14.23
2023-03-17T03:19:31.079Z,14.07
2023-03-17T03:24:36.188Z,13.09
2023-03-17T03:29:40.269Z,13.83
2023-03-17T03:34:43.708Z,13.14
2023-03-17T03:39:48.728Z,13.64
2023-03-17T03:44:52.531Z,13.94
2023-03-17T03:49:55.929Z,13.68
2023-03-17T03:55:00.944Z,13.98
2023-03-17T04:00:05.686Z,14.01
2023-03-17T04:05:15.715Z,13.85
2023-03-17T04:10:20.779Z,13.81
2023-03-17T04:15:24.697Z,13.90
2023-03-17T04:20:28.620Z,13.94
2023-03-17T04:25:33.593Z,13.85
2023-03-17T04:30:37.021Z,13.52
2023-03-17T04:35:40.700Z,13.30
2023-03-17T04:40:45.491Z,13.37
2023-03-17T04:45:48.960Z,13.10
2023-03-17T04:50:52.445Z,13.86
2023-03-17T04:55:57.681Z,14.25
2023-03-17T05:01:02.429Z,13.72
2023-03-17T05:06:07.081Z,13.59
2023-03-17T05:11:12.432Z,13.49
2023-03-17T05:16:16.149Z,13.78
2023-03-17T05:21:19.565Z,13.67
2023-03-17T05:26:24.353Z,13.71
2023-03-17T05:31:27.825Z,13.91
2023-03-17T05:36:31.985Z,13.68
2023-03-17T05:41:36.858Z,13.72
2023-03-17T05:46:40.546Z,13.71
2023-03-17T05:51:43.909Z,13.17
2023-03-17T05:56:48.740Z,13.67
2023-03-17T06:01:52.144Z,13.53
2023-03-17T06:06:55.549Z,13.63
2023-03-17T06:12:00.965Z,13.36
2023-03-17T06:17:04.622Z,13.73
2023-03-17T06:22:09.259Z,13.87
2023-03-17T06:27:14.396Z,13.83
2023-03-17T06:32:20.874Z,14.01
2023-03-17T06:37:24.674Z,14.09
2023-03-17T06:42:29.434Z,13.93
2023-03-17T06:47:34.098Z,14.54
2023-03-17T06:52:37.655Z,14.98
2023-03-17T06:57:42.634Z,14.81
2023-03-17T07:02:46.138Z,14.88
2023-03-17T07:07:49.622Z,14.65
2023-03-17T07:12:54.972Z,14.82
2023-03-17T07:17:58.566Z,15.35
2023-03-17T07:23:02.270Z,14.49
2023-03-17T07:28:07.160Z,15.53
2023-03-17T07:33:11.274Z,15.40
2023-03-17T07:38:15.065Z,15.25
2023-03-17T07:43:20.980Z,15.84
2023-03-17T07:48:24.384Z,16.30
2023-03-17T07:53:27.814Z,16.75
2023-03-17T07:58:32.719Z,16.38
2023-03-17T08:03:37.694Z,16.68
2023-03-17T08:08:42.729Z,16.46
2023-03-17T08:13:48.002Z,16.96
2023-03-17T08:18:51.468Z,16.91
2023-03-17T08:23:54.924Z,16.79
2023-03-17T08:28:59.848Z,16.77
2023-03-17T08:34:04.726Z,17.43
2023-03-17T08:39:10.453Z,18.08
2023-03-17T08:44:16.501Z,18.71
2023-03-17T08:49:23.109Z,18.77
2023-03-17T08:54:29.918Z,17.56
2023-03-17T08:59:35.013Z,18.54
2023-03-17T09:04:40.144Z,18.07
2023-03-17T09:09:43.855Z,18.31
2023-03-17T09:14:49.385Z,19.46
2023-03-17T09:19:53.064Z,19.61
2023-03-17T09:24:56.980Z,19.91
2023-03-17T09:30:01.829Z,20.46
2023-03-17T09:35:06.126Z,19.93
2023-03-17T09:40:14.239Z,20.63
2023-03-17T09:45:29.057Z,19.83
2023-03-17T09:50:39.081Z,20.17
2023-03-17T09:55:42.575Z,20.95
2023-03-17T10:00:47.517Z,21.21
2023-03-17T10:05:51.132Z,21.62
2023-03-17T10:10:58.032Z,21.64
2023-03-17T10:16:04.914Z,21.97
2023-03-17T10:21:10.592Z,22.00
2023-03-17T10:26:20.309Z,22.04
2023-03-17T10:31:32.987Z,22.13
2023-03-17T10:36:38.544Z,22.84
2023-03-17T10:41:49.615Z,23.22
2023-03-17T10:46:56.518Z,23.71
2023-03-17T10:52:00.785Z,23.81
2023-03-17T10:57:07.340Z,22.80
2023-03-17T11:02:25.613Z,23.70
2023-03-17T11:07:38.134Z,22.31
2023-03-17T11:12:42.396Z,24.18
2023-03-17T11:17:53.119Z,23.73
2023-03-17T11:23:02.232Z,23.49
2023-03-17T11:28:16.969Z,24.02
2023-03-17T11:33:34.828Z,24.16
2023-03-17T11:38:39.346Z,24.15
2023-03-17T11:43:53.174Z,23.19
2023-03-17T11:49:02.732Z,24.37
2023-03-17T11:54:12.067Z,24.52
2023-03-17T11:59:25.770Z,25.30
2023-03-17T12:04:36.033Z,25.74
2023-03-17T12:09:42.162Z,25.43
2023-03-17T12:14:49.727Z,25.09
2023-03-17T12:20:07.047Z,24.85
2023-03-17T12:25:16.381Z,24.74
2023-03-17T12:30:26.016Z,24.12
2023-03-17T12:35:34.121Z,25.60
2023-03-17T12:40:43.268Z,25.95
2023-03-17T12:45:56.850Z,26.05
2023-03-17T12:51:20.493Z,25.30
2023-03-17T12:56:27.634Z,25.65
2023-03-17T13:01:36.027Z,25.96
2023-03-17T13:06:43.682Z,25.57
2023-03-17T13:11:48.433Z,26.27
2023-03-17T13:16:53.320Z,26.06
2023-03-17T13:22:25.017Z,26.31
2023-03-17T13:27:52.656Z,26.24
2023-03-17T13:32:56.991Z,26.08
2023-03-17T13:38:28.109Z,26.24
2023-03-17T13:43:49.895Z,25.82
2023-03-17T13:48:55.313Z,26.02
2023-03-17T13:54:09.573Z,26.35
2023-03-17T13:59:14.469Z,26.06
2023-03-17T14:04:23.066Z,26.06
2023-03-17T14:09:37.987Z,26.50
2023-03-17T14:14:49.448Z,26.61
2023-03-17T14:20:06.303Z,26.36
2023-03-17T14:25:16.515Z,26.21
2023-03-17T14:30:22.319Z,26.11
2023-03-17T14:35:26.331Z,25.87
2023-03-17T14:40:36.808Z,25.91
2023-03-17T14:45:49.231Z,25.99
2023-03-17T14:50:54.908Z,25.75
2023-03-17T14:56:00.749Z,25.63
2023-03-17T15:01:06.784Z,25.44
2023-03-17T15:06:24.551Z,25.53
2023-03-17T15:11:38.785Z,24.86
2023-03-17T15:16:43.713Z,25.50
2023-03-17T15:21:47.235Z,24.34
2023-03-17T15:26:52.072Z,25.02
2023-03-17T15:32:00.900Z,25.03
2023-03-17T15:37:04.440Z,25.12
2023-03-17T15:42:09.472Z,25.22
2023-03-17T15:47:15.073Z,24.97
2023-03-17T15:52:21.605Z,24.57
2023-03-17T15:57:27.089Z,24.33
2023-03-17T16:02:32.571Z,24.43
2023-03-17T16:07:36.068Z,24.27
2023-03-17T16:12:41.696Z,24.17
2023-03-17T16:17:45.409Z,23.70
2023-03-17T16:22:49.571Z,24.13
2023-03-17T16:27:56.508Z,24.24
2023-03-17T16:33:03.169Z,24.11
2023-03-17T16:38:07.519Z,24.05
2023-03-17T16:43:25.261Z,23.55
2023-03-17T16:48:30.040Z,23.25
2023-03-17T16:53:33.535Z,22.73
2023-03-17T16:58:38.512Z,22.87
2023-03-17T17:03:42.288Z,22.99
2023-03-17T17:08:47.022Z,23.01
2023-03-17T17:13:52.125Z,22.74
2023-03-17T17:18:56.247Z,22.42
2023-03-17T17:24:00.022Z,22.14
2023-03-17T17:29:04.885Z,21.78
2023-03-17T17:34:08.285Z,22.15
2023-03-17T17:39:11.846Z,22.10
2023-03-17T17:44:16.589Z,21.95
2023-03-17T17:49:21.091Z,21.95
2023-03-17T17:54:24.553Z,21.70
2023-03-17T17:59:29.383Z,21.36
2023-03-17T18:04:32.856Z,21.79
2023-03-17T18:09:46.372Z,21.78
2023-03-17T18:15:09.261Z,21.62
2023-03-17T18:20:15.351Z,21.43
2023-03-17T18:25:20.246Z,21.51
2023-03-17T18:30:27.757Z,21.77
2023-03-17T18:35:32.334Z,21.61
2023-03-17T18:40:36.222Z,21.82
2023-03-17T18:45:42.351Z,21.61
2023-03-17T18:50:49.158Z,21.72
2023-03-17T18:55:52.800Z,21.78
2023-03-17T19:01:01.938Z,21.61
2023-03-17T19:06:10.880Z,21.47
2023-03-17T19:11:15.418Z,21.63
2023-03-17T19:16:20.649Z,21.49
2023-03-17T19:21:24.602Z,21.52
2023-03-17T19:26:28.513Z,21.53
2023-03-17T19:31:33.315Z,21.36
2023-03-17T19:36:37.805Z,21.54
2023-03-17T19:41:41.659Z,21.45
2023-03-17T19:46:46.469Z,21.20
2023-03-17T19:51:50.016Z,21.36
2023-03-17T19:56:53.517Z,21.32
2023-03-17T20:01:58.633Z,21.31
2023-03-17T20:07:02.131Z,21.08
2023-03-17T20:12:06.061Z,20.61
2023-03-17T20:17:11.979Z,20.47
2023-03-17T20:22:15.854Z,20.01
2023-03-17T20:27:19.668Z,20.14
2023-03-17T20:32:24.398Z,20.13
2023-03-17T20:37:27.936Z,20.34
2023-03-17T20:42:31.319Z,20.48
2023-03-17T20:47:36.112Z,20.53
2023-03-17T20:52:40.979Z,20.36
2023-03-17T20:57:47.438Z,19.95
2023-03-17T21:02:52.274Z,20.16
2023-03-17T21:07:56.597Z,20.27
2023-03-17T21:13:00.421Z,20.30
2023-03-17T21:18:05.818Z,20.21
2023-03-17T21:23:09.875Z,20.16
2023-03-17T21:28:13.595Z,20.12
2023-03-17T21:33:18.407Z,20.01
2023-03-17T21:38:21.952Z,20.01
2023-03-17T21:43:25.785Z,19.95
2023-03-17T21:48:30.976Z,19.91
2023-03-17T21:53:34.404Z,19.89
2023-03-17T21:58:37.805Z,19.94
2023-03-17T22:03:43.133Z,19.81
2023-03-17T22:08:48.021Z,19.86
2023-03-17T22:13:51.449Z,19.76
2023-03-17T22:18:56.421Z,19.52
2023-03-17T22:23:59.854Z,19.29
2023-03-17T22:29:03.783Z,19.41
2023-03-17T22:34:09.835Z,19.50
2023-03-17T22:39:13.319Z,19.68
2023-03-17T22:44:16.711Z,19.43
2023-03-17T22:49:21.842Z,19.17
2023-03-17T22:54:25.296Z,19.51
2023-03-17T22:59:28.718Z,19.47
2023-03-17T23:04:33.875Z,19.50
2023-03-17T23:09:38.452Z,19.57
2023-03-17T23:14:41.891Z,19.36
2023-03-17T23:19:46.792Z,19.36
2023-03-17T23:24:50.648Z,19.60
2023-03-17T23:29:54.055Z,19.70
2023-03-17T23:34:59.583Z,19.62
2023-03-17T23:40:03.417Z,19.55
2023-03-17T23:45:08.510Z,19.49
2023-03-17T23:50:14.378Z,18.88
2023-03-17T23:55:18.653Z,18.96
